sensor_id;sensor_type;location;lat;lon;timestamp;temperature;humidity
20459;DHT22;10388;52.314;7.938;2023-04-26T01:48:25;0.70;99.90
20459;DHT22;10388;52.314;7.938;2023-04-26T01:51:06;0.60;99.90
20459;DHT22;10388;52.314;7.938;2023-04-26T01:54:00;0.60;99.90
20459;DHT22;10388;52.314;7.938;2023-04-26T01:56:48;0.60;99.90
20459;DHT22;10388;52.314;7.938;2023-04-26T01:59:41;0.60;99.90
20459;DHT22;10388;52.314;7.938;2023-04-26T02:02:18;0.60;99.90
20459;DHT22;10388;52.314;7.938;2023-04-26T02:04:55;0.60;99.90
20459;DHT22;10388;52.314;7.938;2023-04-26T02:07:53;0.50;99.90
20459;DHT22;10388;52.314;7.938;2023-04-26T02:10:37;0.50;99.90
20459;DHT22;10388;52.314;7.938;2023-04-26T02:13:25;0.50;99.90
20459;DHT22;10388;52.314;7.938;2023-04-26T02:16:14;0.50;99.90
20459;DHT22;10388;52.314;7.938;2023-04-26T02:19:23;0.50;99.90
20459;DHT22;10388;52.314;7.938;2023-04-26T02:22:17;0.50;99.90
20459;DHT22;10388;52.314;7.938;2023-04-26T02:24:58;0.40;99.90
20459;DHT22;10388;52.314;7.938;2023-04-26T02:27:35;0.40;99.90
20459;DHT22;10388;52.314;7.938;2023-04-26T02:34:14;0.40;99.90
20459;DHT22;10388;52.314;7.938;2023-04-26T02:36:45;0.40;99.90
20459;DHT22;10388;52.314;7.938;2023-04-26T02:39:44;0.30;99.90
20459;DHT22;10388;52.314;7.938;2023-04-26T02:42:45;0.30;99.90
20459;DHT22;10388;52.314;7.938;2023-04-26T02:45:24;0.30;99.90
20459;DHT22;10388;52.314;7.938;2023-04-26T02:48:03;0.20;99.90
20459;DHT22;10388;52.314;7.938;2023-04-26T02:50:44;0.20;99.90
20459;DHT22;10388;52.314;7.938;2023-04-26T02:53:40;0.20;99.90
20459;DHT22;10388;52.314;7.938;2023-04-26T02:56:18;0.30;99.90
20459;DHT22;10388;52.314;7.938;2023-04-26T02:58:48;0.20;99.90
20459;DHT22;10388;52.314;7.938;2023-04-26T03:08:30;0.30;99.90
20459;DHT22;10388;52.314;7.938;2023-04-26T03:11:46;0.20;99.90
20459;DHT22;10388;52.314;7.938;2023-04-26T03:20:58;0.30;99.90
20459;DHT22;10388;52.314;7.938;2023-04-26T03:26:51;0.30;99.90
20459;DHT22;10388;52.314;7.938;2023-04-26T03:29:48;0.30;99.90
20459;DHT22;10388;52.314;7.938;2023-04-26T03:33:06;0.30;99.90
20459;DHT22;10388;52.314;7.938;2023-04-26T03:35:50;0.30;99.90
20459;DHT22;10388;52.314;7.938;2023-04-26T03:41:08;0.30;99.90
20459;DHT22;10388;52.314;7.938;2023-04-26T03:44:11;0.40;99.90
20459;DHT22;10388;52.314;7.938;2023-04-26T03:46:44;0.40;99.90
20459;DHT22;10388;52.314;7.938;2023-04-26T03:49:40;0.40;99.90
20459;DHT22;10388;52.314;7.938;2023-04-26T03:52:27;0.40;99.90
20459;DHT22;10388;52.314;7.938;2023-04-26T04:08:11;0.40;99.90
20459;DHT22;10388;52.314;7.938;2023-04-26T04:11:49;0.40;99.90
20459;DHT22;10388;52.314;7.938;2023-04-26T04:14:44;0.30;99.90
20459;DHT22;10388;52.314;7.938;2023-04-26T04:20:54;0.30;99.90
20459;DHT22;10388;52.314;7.938;2023-04-26T04:27:40;0.30;99.90
20459;DHT22;10388;52.314;7.938;2023-04-26T04:34:25;0.30;99.90
20459;DHT22;10388;52.314;7.938;2023-04-26T04:37:38;0.40;99.90
20459;DHT22;10388;52.314;7.938;2023-04-26T04:46:58;0.50;99.90
20459;DHT22;10388;52.314;7.938;2023-04-26T04:49:29;0.60;99.90
20459;DHT22;10388;52.314;7.938;2023-04-26T04:52:00;0.60;99.90
20459;DHT22;10388;52.314;7.938;2023-04-26T04:54:31;0.70;99.90
20459;DHT22;10388;52.314;7.938;2023-04-26T04:57:02;0.80;99.90
20459;DHT22;10388;52.314;7.938;2023-04-26T04:59:33;1.00;99.90
20459;DHT22;10388;52.314;7.938;2023-04-26T05:02:03;1.10;99.90
20459;DHT22;10388;52.314;7.938;2023-04-26T05:04:34;1.30;99.90
20459;DHT22;10388;52.314;7.938;2023-04-26T05:07:05;1.40;99.90
20459;DHT22;10388;52.314;7.938;2023-04-26T05:09:35;1.50;99.90
20459;DHT22;10388;52.314;7.938;2023-04-26T05:12:06;1.60;99.90
20459;DHT22;10388;52.314;7.938;2023-04-26T05:14:37;1.70;99.90
20459;DHT22;10388;52.314;7.938;2023-04-26T05:17:07;1.70;99.90
20459;DHT22;10388;52.314;7.938;2023-04-26T05:19:38;1.80;99.90
20459;DHT22;10388;52.314;7.938;2023-04-26T05:22:08;1.80;99.90
20459;DHT22;10388;52.314;7.938;2023-04-26T05:24:39;1.90;99.90
20459;DHT22;10388;52.314;7.938;2023-04-26T05:27:10;1.90;99.90
20459;DHT22;10388;52.314;7.938;2023-04-26T05:29:41;2.00;99.90
20459;DHT22;10388;52.314;7.938;2023-04-26T05:32:12;2.00;99.90
20459;DHT22;10388;52.314;7.938;2023-04-26T05:34:42;2.10;99.90
20459;DHT22;10388;52.314;7.938;2023-04-26T05:37:13;2.20;99.90
20459;DHT22;10388;52.314;7.938;2023-04-26T05:39:43;2.30;99.90
20459;DHT22;10388;52.314;7.938;2023-04-26T05:42:14;2.40;99.90
20459;DHT22;10388;52.314;7.938;2023-04-26T05:44:45;2.50;99.90
20459;DHT22;10388;52.314;7.938;2023-04-26T05:47:16;2.60;99.90
20459;DHT22;10388;52.314;7.938;2023-04-26T05:49:46;2.70;99.90
20459;DHT22;10388;52.314;7.938;2023-04-26T05:52:17;2.80;99.90
20459;DHT22;10388;52.314;7.938;2023-04-26T05:54:47;2.90;99.90
20459;DHT22;10388;52.314;7.938;2023-04-26T05:57:18;3.00;99.90
20459;DHT22;10388;52.314;7.938;2023-04-26T05:59:48;3.20;99.90
20459;DHT22;10388;52.314;7.938;2023-04-26T06:02:19;3.30;99.90
20459;DHT22;10388;52.314;7.938;2023-04-26T06:04:50;3.50;99.90
20459;DHT22;10388;52.314;7.938;2023-04-26T06:07:20;3.60;99.90
20459;DHT22;10388;52.314;7.938;2023-04-26T06:09:51;3.70;99.90
20459;DHT22;10388;52.314;7.938;2023-04-26T06:12:24;3.80;99.90
20459;DHT22;10388;52.314;7.938;2023-04-26T06:14:55;3.90;99.90
20459;DHT22;10388;52.314;7.938;2023-04-26T06:17:25;4.00;99.90
20459;DHT22;10388;52.314;7.938;2023-04-26T06:19:56;4.20;99.90
20459;DHT22;10388;52.314;7.938;2023-04-26T06:22:26;4.40;99.90
20459;DHT22;10388;52.314;7.938;2023-04-26T06:24:57;4.50;99.90
20459;DHT22;10388;52.314;7.938;2023-04-26T06:27:27;4.60;99.90
20459;DHT22;10388;52.314;7.938;2023-04-26T06:29:58;4.70;99.90
20459;DHT22;10388;52.314;7.938;2023-04-26T06:32:28;4.80;99.90
20459;DHT22;10388;52.314;7.938;2023-04-26T06:34:59;4.90;99.90
20459;DHT22;10388;52.314;7.938;2023-04-26T06:37:30;5.00;99.90
20459;DHT22;10388;52.314;7.938;2023-04-26T06:40:00;5.20;99.90
20459;DHT22;10388;52.314;7.938;2023-04-26T06:42:31;5.30;99.90
20459;DHT22;10388;52.314;7.938;2023-04-26T06:45:02;5.30;99.90
20459;DHT22;10388;52.314;7.938;2023-04-26T06:47:32;5.40;99.90
20459;DHT22;10388;52.314;7.938;2023-04-26T06:50:03;5.50;99.90
20459;DHT22;10388;52.314;7.938;2023-04-26T06:52:34;5.60;99.90
20459;DHT22;10388;52.314;7.938;2023-04-26T06:55:05;5.80;99.90
20459;DHT22;10388;52.314;7.938;2023-04-26T06:57:36;5.80;99.90
20459;DHT22;10388;52.314;7.938;2023-04-26T07:00:07;5.90;99.90
20459;DHT22;10388;52.314;7.938;2023-04-26T07:02:39;6.10;99.90
20459;DHT22;10388;52.314;7.938;2023-04-26T07:05:09;6.20;99.90
20459;DHT22;10388;52.314;7.938;2023-04-26T07:07:40;6.30;99.90
20459;DHT22;10388;52.314;7.938;2023-04-26T07:10:10;6.40;99.90
20459;DHT22;10388;52.314;7.938;2023-04-26T07:12:41;6.50;99.90
20459;DHT22;10388;52.314;7.938;2023-04-26T07:15:11;6.50;99.90
20459;DHT22;10388;52.314;7.938;2023-04-26T07:17:42;6.50;99.90
20459;DHT22;10388;52.314;7.938;2023-04-26T07:20:13;6.50;99.90
20459;DHT22;10388;52.314;7.938;2023-04-26T07:22:49;6.40;99.90
20459;DHT22;10388;52.314;7.938;2023-04-26T07:25:20;6.50;99.90
20459;DHT22;10388;52.314;7.938;2023-04-26T07:27:51;6.50;99.90
20459;DHT22;10388;52.314;7.938;2023-04-26T07:30:21;6.50;99.90
20459;DHT22;10388;52.314;7.938;2023-04-26T07:32:52;6.60;99.90
20459;DHT22;10388;52.314;7.938;2023-04-26T07:35:22;6.90;99.90
20459;DHT22;10388;52.314;7.938;2023-04-26T07:37:53;6.90;99.90
20459;DHT22;10388;52.314;7.938;2023-04-26T07:40:23;7.00;99.90
20459;DHT22;10388;52.314;7.938;2023-04-26T07:42:55;6.80;99.90
20459;DHT22;10388;52.314;7.938;2023-04-26T07:45:26;6.80;99.90
20459;DHT22;10388;52.314;7.938;2023-04-26T07:47:56;7.00;99.90
20459;DHT22;10388;52.314;7.938;2023-04-26T07:50:27;7.20;99.90
20459;DHT22;10388;52.314;7.938;2023-04-26T07:52:57;7.40;99.90
20459;DHT22;10388;52.314;7.938;2023-04-26T07:55:28;7.50;99.90
20459;DHT22;10388;52.314;7.938;2023-04-26T07:57:58;7.80;99.90
20459;DHT22;10388;52.314;7.938;2023-04-26T08:00:29;8.10;99.90
20459;DHT22;10388;52.314;7.938;2023-04-26T08:03:00;8.20;99.90
20459;DHT22;10388;52.314;7.938;2023-04-26T08:05:30;8.10;99.90
20459;DHT22;10388;52.314;7.938;2023-04-26T08:08:01;8.00;99.90
20459;DHT22;10388;52.314;7.938;2023-04-26T08:10:32;7.80;99.90
20459;DHT22;10388;52.314;7.938;2023-04-26T08:13:02;8.00;99.90
20459;DHT22;10388;52.314;7.938;2023-04-26T08:15:33;8.10;99.90
20459;DHT22;10388;52.314;7.938;2023-04-26T08:18:03;8.10;99.90
20459;DHT22;10388;52.314;7.938;2023-04-26T08:20:34;8.00;99.90
20459;DHT22;10388;52.314;7.938;2023-04-26T08:23:04;8.00;99.90
20459;DHT22;10388;52.314;7.938;2023-04-26T08:25:35;8.20;99.90
20459;DHT22;10388;52.314;7.938;2023-04-26T08:28:05;8.30;99.90
20459;DHT22;10388;52.314;7.938;2023-04-26T08:30:37;8.50;99.90
20459;DHT22;10388;52.314;7.938;2023-04-26T08:33:08;9.00;99.90
20459;DHT22;10388;52.314;7.938;2023-04-26T08:35:39;9.00;99.90
20459;DHT22;10388;52.314;7.938;2023-04-26T08:38:10;8.80;99.90
20459;DHT22;10388;52.314;7.938;2023-04-26T08:40:42;8.70;99.90
20459;DHT22;10388;52.314;7.938;2023-04-26T08:43:15;9.10;99.90
20459;DHT22;10388;52.314;7.938;2023-04-26T08:45:46;9.40;99.90
20459;DHT22;10388;52.314;7.938;2023-04-26T08:48:17;9.20;99.90
20459;DHT22;10388;52.314;7.938;2023-04-26T08:50:49;9.00;99.90
20459;DHT22;10388;52.314;7.938;2023-04-26T08:53:21;9.10;99.90
20459;DHT22;10388;52.314;7.938;2023-04-26T08:55:52;9.20;99.90
20459;DHT22;10388;52.314;7.938;2023-04-26T08:58:23;9.40;99.90
20459;DHT22;10388;52.314;7.938;2023-04-26T09:00:54;9.60;99.90
20459;DHT22;10388;52.314;7.938;2023-04-26T09:03:24;9.60;99.90
20459;DHT22;10388;52.314;7.938;2023-04-26T09:05:55;9.40;99.90
20459;DHT22;10388;52.314;7.938;2023-04-26T09:08:27;9.00;99.90
20459;DHT22;10388;52.314;7.938;2023-04-26T09:10:58;9.10;99.90
20459;DHT22;10388;52.314;7.938;2023-04-26T09:13:28;9.10;99.90
20459;DHT22;10388;52.314;7.938;2023-04-26T09:16:00;8.90;99.90
20459;DHT22;10388;52.314;7.938;2023-04-26T09:18:31;9.20;99.90
20459;DHT22;10388;52.314;7.938;2023-04-26T09:21:07;9.60;99.90
20459;DHT22;10388;52.314;7.938;2023-04-26T09:23:56;9.80;99.90
20459;DHT22;10388;52.314;7.938;2023-04-26T09:26:27;10.10;99.90
20459;DHT22;10388;52.314;7.938;2023-04-26T09:29:14;10.30;99.90
20459;DHT22;10388;52.314;7.938;2023-04-26T09:31:47;9.90;99.90
20459;DHT22;10388;52.314;7.938;2023-04-26T09:34:17;9.90;99.90
20459;DHT22;10388;52.314;7.938;2023-04-26T09:36:53;9.90;99.90
20459;DHT22;10388;52.314;7.938;2023-04-26T09:42:04;9.20;99.90
20459;DHT22;10388;52.314;7.938;2023-04-26T09:44:35;9.10;99.90
20459;DHT22;10388;52.314;7.938;2023-04-26T09:47:07;9.10;99.90
20459;DHT22;10388;52.314;7.938;2023-04-26T09:49:50;9.00;99.90
20459;DHT22;10388;52.314;7.938;2023-04-26T09:52:21;9.50;99.90
20459;DHT22;10388;52.314;7.938;2023-04-26T09:54:52;9.60;99.90
20459;DHT22;10388;52.314;7.938;2023-04-26T09:57:23;9.40;99.90
20459;DHT22;10388;52.314;7.938;2023-04-26T09:59:54;9.20;99.90
20459;DHT22;10388;52.314;7.938;2023-04-26T10:02:26;9.10;99.90
20459;DHT22;10388;52.314;7.938;2023-04-26T10:04:57;8.90;99.90
20459;DHT22;10388;52.314;7.938;2023-04-26T10:07:29;8.80;99.90
20459;DHT22;10388;52.314;7.938;2023-04-26T10:10:00;8.80;99.90
20459;DHT22;10388;52.314;7.938;2023-04-26T10:12:31;8.70;99.90
20459;DHT22;10388;52.314;7.938;2023-04-26T10:15:03;8.80;99.90
20459;DHT22;10388;52.314;7.938;2023-04-26T10:17:35;8.90;99.90
20459;DHT22;10388;52.314;7.938;2023-04-26T10:20:11;9.20;99.90
20459;DHT22;10388;52.314;7.938;2023-04-26T10:22:48;9.30;99.90
20459;DHT22;10388;52.314;7.938;2023-04-26T10:25:20;9.40;99.90
20459;DHT22;10388;52.314;7.938;2023-04-26T10:27:51;9.50;99.90
20459;DHT22;10388;52.314;7.938;2023-04-26T10:30:22;9.80;99.90
20459;DHT22;10388;52.314;7.938;2023-04-26T10:35:27;9.70;99.90
20459;DHT22;10388;52.314;7.938;2023-04-26T10:40:36;9.60;99.90
20459;DHT22;10388;52.314;7.938;2023-04-26T10:45:42;9.50;99.90
20459;DHT22;10388;52.314;7.938;2023-04-26T10:48:17;9.50;99.90
20459;DHT22;10388;52.314;7.938;2023-04-26T10:56:02;10.10;99.90
20459;DHT22;10388;52.314;7.938;2023-04-26T10:58:34;10.30;99.90
20459;DHT22;10388;52.314;7.938;2023-04-26T11:06:55;9.90;99.90
20459;DHT22;10388;52.314;7.938;2023-04-26T11:09:47;9.80;99.90
20459;DHT22;10388;52.314;7.938;2023-04-26T11:12:20;9.80;99.90
20459;DHT22;10388;52.314;7.938;2023-04-26T11:14:52;9.80;99.90
20459;DHT22;10388;52.314;7.938;2023-04-26T11:17:23;9.90;99.90
20459;DHT22;10388;52.314;7.938;2023-04-26T11:19:53;10.00;99.90
20459;DHT22;10388;52.314;7.938;2023-04-26T11:22:24;9.80;99.90
20459;DHT22;10388;52.314;7.938;2023-04-26T11:24:55;9.90;99.90
20459;DHT22;10388;52.314;7.938;2023-04-26T11:27:26;10.20;99.90
20459;DHT22;10388;52.314;7.938;2023-04-26T11:29:57;10.20;99.90
20459;DHT22;10388;52.314;7.938;2023-04-26T11:32:32;10.40;99.90
20459;DHT22;10388;52.314;7.938;2023-04-26T11:35:02;10.60;99.90
20459;DHT22;10388;52.314;7.938;2023-04-26T11:37:33;10.80;99.90
20459;DHT22;10388;52.314;7.938;2023-04-26T11:40:04;10.80;99.90
20459;DHT22;10388;52.314;7.938;2023-04-26T11:42:36;10.90;99.90
20459;DHT22;10388;52.314;7.938;2023-04-26T11:45:07;11.30;99.90
20459;DHT22;10388;52.314;7.938;2023-04-26T11:47:38;11.70;99.90
20459;DHT22;10388;52.314;7.938;2023-04-26T11:50:09;12.00;99.90
20459;DHT22;10388;52.314;7.938;2023-04-26T11:52:40;12.40;99.90
20459;DHT22;10388;52.314;7.938;2023-04-26T11:55:11;12.70;99.90
20459;DHT22;10388;52.314;7.938;2023-04-26T11:57:41;12.80;99.90
20459;DHT22;10388;52.314;7.938;2023-04-26T12:00:13;13.00;99.90
20459;DHT22;10388;52.314;7.938;2023-04-26T12:02:45;13.20;99.90
20459;DHT22;10388;52.314;7.938;2023-04-26T12:05:24;13.50;99.90
20459;DHT22;10388;52.314;7.938;2023-04-26T12:07:56;13.60;99.90
20459;DHT22;10388;52.314;7.938;2023-04-26T12:10:35;13.40;99.90
20459;DHT22;10388;52.314;7.938;2023-04-26T12:13:06;13.30;99.90
20459;DHT22;10388;52.314;7.938;2023-04-26T12:15:38;13.00;99.90
20459;DHT22;10388;52.314;7.938;2023-04-26T12:18:09;12.60;99.90
20459;DHT22;10388;52.314;7.938;2023-04-26T12:20:41;12.30;99.90
20459;DHT22;10388;52.314;7.938;2023-04-26T12:23:14;12.00;99.90
20459;DHT22;10388;52.314;7.938;2023-04-26T12:28:23;11.30;99.90
20459;DHT22;10388;52.314;7.938;2023-04-26T12:30:54;11.00;99.90
20459;DHT22;10388;52.314;7.938;2023-04-26T12:33:25;10.80;99.90
20459;DHT22;10388;52.314;7.938;2023-04-26T12:35:55;10.90;99.90
20459;DHT22;10388;52.314;7.938;2023-04-26T12:38:29;10.90;99.90
20459;DHT22;10388;52.314;7.938;2023-04-26T12:41:00;10.90;99.90
20459;DHT22;10388;52.314;7.938;2023-04-26T12:43:31;10.70;99.90
20459;DHT22;10388;52.314;7.938;2023-04-26T12:46:01;10.60;99.90
20459;DHT22;10388;52.314;7.938;2023-04-26T12:48:32;10.70;99.90
20459;DHT22;10388;52.314;7.938;2023-04-26T12:51:02;10.70;99.90
20459;DHT22;10388;52.314;7.938;2023-04-26T12:53:33;10.60;99.90
20459;DHT22;10388;52.314;7.938;2023-04-26T12:56:04;10.50;99.90
20459;DHT22;10388;52.314;7.938;2023-04-26T12:58:34;10.00;99.90
20459;DHT22;10388;52.314;7.938;2023-04-26T13:01:05;10.30;99.90
20459;DHT22;10388;52.314;7.938;2023-04-26T13:03:36;10.20;99.90
20459;DHT22;10388;52.314;7.938;2023-04-26T13:06:06;10.30;99.90
20459;DHT22;10388;52.314;7.938;2023-04-26T13:08:37;10.50;99.90
20459;DHT22;10388;52.314;7.938;2023-04-26T13:11:08;10.60;99.90
20459;DHT22;10388;52.314;7.938;2023-04-26T13:13:38;10.70;99.90
20459;DHT22;10388;52.314;7.938;2023-04-26T13:16:09;10.60;99.90
20459;DHT22;10388;52.314;7.938;2023-04-26T13:18:40;10.80;99.90
20459;DHT22;10388;52.314;7.938;2023-04-26T13:21:10;10.70;99.90
20459;DHT22;10388;52.314;7.938;2023-04-26T13:23:41;10.80;99.90
20459;DHT22;10388;52.314;7.938;2023-04-26T13:26:12;10.90;99.90
20459;DHT22;10388;52.314;7.938;2023-04-26T13:28:43;10.80;99.90
20459;DHT22;10388;52.314;7.938;2023-04-26T13:31:14;11.00;99.90
20459;DHT22;10388;52.314;7.938;2023-04-26T13:33:46;11.50;99.90
20459;DHT22;10388;52.314;7.938;2023-04-26T13:36:18;11.70;99.90
20459;DHT22;10388;52.314;7.938;2023-04-26T13:38:49;12.30;99.90
20459;DHT22;10388;52.314;7.938;2023-04-26T13:41:19;12.60;99.90
20459;DHT22;10388;52.314;7.938;2023-04-26T13:43:51;12.90;99.90
20459;DHT22;10388;52.314;7.938;2023-04-26T13:46:22;13.00;99.90
20459;DHT22;10388;52.314;7.938;2023-04-26T13:48:53;13.10;99.90
20459;DHT22;10388;52.314;7.938;2023-04-26T13:51:24;13.40;99.90
20459;DHT22;10388;52.314;7.938;2023-04-26T13:53:56;13.70;99.90
20459;DHT22;10388;52.314;7.938;2023-04-26T13:56:26;13.90;99.90
20459;DHT22;10388;52.314;7.938;2023-04-26T13:58:57;13.10;99.90
20459;DHT22;10388;52.314;7.938;2023-04-26T14:01:33;12.40;99.90
20459;DHT22;10388;52.314;7.938;2023-04-26T14:04:05;11.90;99.90
20459;DHT22;10388;52.314;7.938;2023-04-26T14:06:35;11.70;99.90
20459;DHT22;10388;52.314;7.938;2023-04-26T14:09:06;11.50;99.90
20459;DHT22;10388;52.314;7.938;2023-04-26T14:11:37;11.60;99.90
20459;DHT22;10388;52.314;7.938;2023-04-26T14:14:08;11.50;99.90
20459;DHT22;10388;52.314;7.938;2023-04-26T14:16:38;11.30;99.90
20459;DHT22;10388;52.314;7.938;2023-04-26T14:19:09;11.30;99.90
20459;DHT22;10388;52.314;7.938;2023-04-26T14:21:40;11.20;99.90
20459;DHT22;10388;52.314;7.938;2023-04-26T14:24:11;11.30;99.90
20459;DHT22;10388;52.314;7.938;2023-04-26T14:26:42;11.20;99.90
20459;DHT22;10388;52.314;7.938;2023-04-26T14:29:12;11.30;99.90
20459;DHT22;10388;52.314;7.938;2023-04-26T14:31:43;11.20;99.90
20459;DHT22;10388;52.314;7.938;2023-04-26T14:34:14;11.70;99.90
20459;DHT22;10388;52.314;7.938;2023-04-26T14:36:44;12.40;99.90
20459;DHT22;10388;52.314;7.938;2023-04-26T14:39:15;12.80;99.90
20459;DHT22;10388;52.314;7.938;2023-04-26T14:41:46;13.00;99.90
20459;DHT22;10388;52.314;7.938;2023-04-26T14:44:16;13.10;99.90
20459;DHT22;10388;52.314;7.938;2023-04-26T14:46:47;13.10;99.90
20459;DHT22;10388;52.314;7.938;2023-04-26T14:49:18;13.00;99.90
20459;DHT22;10388;52.314;7.938;2023-04-26T14:51:49;12.00;99.90
20459;DHT22;10388;52.314;7.938;2023-04-26T14:54:19;11.90;99.90
20459;DHT22;10388;52.314;7.938;2023-04-26T14:56:50;11.80;99.90
20459;DHT22;10388;52.314;7.938;2023-04-26T14:59:21;11.70;99.90
20459;DHT22;10388;52.314;7.938;2023-04-26T15:01:51;11.30;99.90
20459;DHT22;10388;52.314;7.938;2023-04-26T15:04:22;11.40;99.90
20459;DHT22;10388;52.314;7.938;2023-04-26T15:06:53;11.50;99.90
20459;DHT22;10388;52.314;7.938;2023-04-26T15:09:23;11.40;99.90
20459;DHT22;10388;52.314;7.938;2023-04-26T15:11:54;11.40;99.90
20459;DHT22;10388;52.314;7.938;2023-04-26T15:14:24;11.20;99.90
20459;DHT22;10388;52.314;7.938;2023-04-26T15:16:56;11.20;99.90
20459;DHT22;10388;52.314;7.938;2023-04-26T15:19:27;11.20;99.90
20459;DHT22;10388;52.314;7.938;2023-04-26T15:21:57;11.30;99.90
20459;DHT22;10388;52.314;7.938;2023-04-26T15:24:28;11.10;99.90
20459;DHT22;10388;52.314;7.938;2023-04-26T15:26:58;11.00;99.90
20459;DHT22;10388;52.314;7.938;2023-04-26T15:29:32;11.10;99.90
20459;DHT22;10388;52.314;7.938;2023-04-26T15:32:03;11.00;99.90
20459;DHT22;10388;52.314;7.938;2023-04-26T15:34:42;10.80;99.90
20459;DHT22;10388;52.314;7.938;2023-04-26T15:37:14;10.90;99.90
20459;DHT22;10388;52.314;7.938;2023-04-26T15:39:44;10.70;99.90
20459;DHT22;10388;52.314;7.938;2023-04-26T15:42:16;10.60;99.90
20459;DHT22;10388;52.314;7.938;2023-04-26T15:44:47;10.60;99.90
20459;DHT22;10388;52.314;7.938;2023-04-26T15:47:18;10.60;99.90
20459;DHT22;10388;52.314;7.938;2023-04-26T15:49:48;10.60;99.90
20459;DHT22;10388;52.314;7.938;2023-04-26T15:52:19;10.50;99.90
20459;DHT22;10388;52.314;7.938;2023-04-26T15:54:50;10.50;99.90
20459;DHT22;10388;52.314;7.938;2023-04-26T15:57:20;10.50;99.90
20459;DHT22;10388;52.314;7.938;2023-04-26T15:59:51;10.50;99.90
20459;DHT22;10388;52.314;7.938;2023-04-26T16:02:21;10.20;99.90
20459;DHT22;10388;52.314;7.938;2023-04-26T16:04:52;10.10;99.90
20459;DHT22;10388;52.314;7.938;2023-04-26T16:07:22;10.20;99.90
20459;DHT22;10388;52.314;7.938;2023-04-26T16:09:53;10.10;99.90
20459;DHT22;10388;52.314;7.938;2023-04-26T16:12:23;10.00;99.90
20459;DHT22;10388;52.314;7.938;2023-04-26T16:14:54;10.10;99.90
20459;DHT22;10388;52.314;7.938;2023-04-26T16:17:25;10.20;99.90
20459;DHT22;10388;52.314;7.938;2023-04-26T16:19:55;10.20;99.90
20459;DHT22;10388;52.314;7.938;2023-04-26T16:22:26;10.10;99.90
20459;DHT22;10388;52.314;7.938;2023-04-26T16:24:58;10.20;99.90
20459;DHT22;10388;52.314;7.938;2023-04-26T16:27:28;10.30;99.90
20459;DHT22;10388;52.314;7.938;2023-04-26T16:29:59;10.20;99.90
20459;DHT22;10388;52.314;7.938;2023-04-26T16:32:29;10.30;99.90
20459;DHT22;10388;52.314;7.938;2023-04-26T16:35:00;10.30;99.90
20459;DHT22;10388;52.314;7.938;2023-04-26T16:37:31;10.30;99.90
20459;DHT22;10388;52.314;7.938;2023-04-26T16:40:02;10.40;99.90
20459;DHT22;10388;52.314;7.938;2023-04-26T16:42:34;10.40;99.90
20459;DHT22;10388;52.314;7.938;2023-04-26T16:45:05;10.40;99.90
20459;DHT22;10388;52.314;7.938;2023-04-26T16:47:35;10.30;99.90
20459;DHT22;10388;52.314;7.938;2023-04-26T16:50:06;10.10;99.90
20459;DHT22;10388;52.314;7.938;2023-04-26T16:52:37;10.00;99.90
20459;DHT22;10388;52.314;7.938;2023-04-26T16:55:08;9.90;99.90
20459;DHT22;10388;52.314;7.938;2023-04-26T16:57:38;9.70;99.90
20459;DHT22;10388;52.314;7.938;2023-04-26T17:00:09;9.60;99.90
20459;DHT22;10388;52.314;7.938;2023-04-26T17:02:40;9.40;99.90
20459;DHT22;10388;52.314;7.938;2023-04-26T17:05:11;9.30;99.90
20459;DHT22;10388;52.314;7.938;2023-04-26T17:07:42;9.30;99.90
20459;DHT22;10388;52.314;7.938;2023-04-26T17:10:12;9.30;99.90
20459;DHT22;10388;52.314;7.938;2023-04-26T17:12:43;9.10;99.90
20459;DHT22;10388;52.314;7.938;2023-04-26T17:15:13;9.20;99.90
20459;DHT22;10388;52.314;7.938;2023-04-26T17:17:44;9.10;99.90
20459;DHT22;10388;52.314;7.938;2023-04-26T17:20:14;9.20;99.90
20459;DHT22;10388;52.314;7.938;2023-04-26T17:22:45;9.10;99.90
20459;DHT22;10388;52.314;7.938;2023-04-26T17:25:16;9.00;99.90
20459;DHT22;10388;52.314;7.938;2023-04-26T17:27:46;9.10;99.90
20459;DHT22;10388;52.314;7.938;2023-04-26T17:30:18;9.00;99.90
20459;DHT22;10388;52.314;7.938;2023-04-26T17:32:48;9.00;99.90
20459;DHT22;10388;52.314;7.938;2023-04-26T17:35:19;8.90;99.90
20459;DHT22;10388;52.314;7.938;2023-04-26T17:37:50;8.80;99.90
20459;DHT22;10388;52.314;7.938;2023-04-26T17:40:20;8.80;99.90
20459;DHT22;10388;52.314;7.938;2023-04-26T17:42:51;8.80;99.90
20459;DHT22;10388;52.314;7.938;2023-04-26T17:45:21;8.70;99.90
20459;DHT22;10388;52.314;7.938;2023-04-26T17:47:52;8.70;99.90
20459;DHT22;10388;52.314;7.938;2023-04-26T17:50:23;8.60;99.90
20459;DHT22;10388;52.314;7.938;2023-04-26T17:52:53;8.60;99.90
20459;DHT22;10388;52.314;7.938;2023-04-26T17:55:24;8.60;99.90
20459;DHT22;10388;52.314;7.938;2023-04-26T17:57:54;8.50;99.90
20459;DHT22;10388;52.314;7.938;2023-04-26T18:00:25;8.60;99.90
20459;DHT22;10388;52.314;7.938;2023-04-26T18:02:56;8.50;99.90
20459;DHT22;10388;52.314;7.938;2023-04-26T18:05:27;8.50;99.90
20459;DHT22;10388;52.314;7.938;2023-04-26T18:07:58;8.50;99.90
20459;DHT22;10388;52.314;7.938;2023-04-26T18:10:28;8.40;99.90
20459;DHT22;10388;52.314;7.938;2023-04-26T18:12:59;8.40;99.90
20459;DHT22;10388;52.314;7.938;2023-04-26T18:15:29;8.30;99.90
20459;DHT22;10388;52.314;7.938;2023-04-26T18:18:00;8.30;99.90
20459;DHT22;10388;52.314;7.938;2023-04-26T18:20:35;8.20;99.90
20459;DHT22;10388;52.314;7.938;2023-04-26T18:23:06;8.20;99.90
20459;DHT22;10388;52.314;7.938;2023-04-26T18:25:36;8.20;99.90
20459;DHT22;10388;52.314;7.938;2023-04-26T18:28:07;8.10;99.90
20459;DHT22;10388;52.314;7.938;2023-04-26T18:30:38;8.00;99.90
20459;DHT22;10388;52.314;7.938;2023-04-26T18:33:08;8.00;99.90
20459;DHT22;10388;52.314;7.938;2023-04-26T18:35:39;8.00;99.90
20459;DHT22;10388;52.314;7.938;2023-04-26T18:38:09;7.90;99.90
20459;DHT22;10388;52.314;7.938;2023-04-26T18:40:44;7.90;99.90
20459;DHT22;10388;52.314;7.938;2023-04-26T18:43:14;7.80;99.90
20459;DHT22;10388;52.314;7.938;2023-04-26T18:45:45;7.80;99.90
20459;DHT22;10388;52.314;7.938;2023-04-26T18:48:15;7.80;99.90
20459;DHT22;10388;52.314;7.938;2023-04-26T18:50:50;7.70;99.90
20459;DHT22;10388;52.314;7.938;2023-04-26T18:53:20;7.70;99.90
20459;DHT22;10388;52.314;7.938;2023-04-26T18:55:51;7.60;99.90
20459;DHT22;10388;52.314;7.938;2023-04-26T18:58:24;7.60;99.90
20459;DHT22;10388;52.314;7.938;2023-04-26T19:00:55;7.60;99.90
20459;DHT22;10388;52.314;7.938;2023-04-26T19:03:25;7.50;99.90
20459;DHT22;10388;52.314;7.938;2023-04-26T19:05:56;7.50;99.90
20459;DHT22;10388;52.314;7.938;2023-04-26T19:08:27;7.50;99.90
20459;DHT22;10388;52.314;7.938;2023-04-26T19:10:57;7.40;99.90
20459;DHT22;10388;52.314;7.938;2023-04-26T19:13:28;7.40;99.90
20459;DHT22;10388;52.314;7.938;2023-04-26T19:15:59;7.40;99.90
20459;DHT22;10388;52.314;7.938;2023-04-26T19:18:31;7.30;99.90
20459;DHT22;10388;52.314;7.938;2023-04-26T19:21:03;7.30;99.90
20459;DHT22;10388;52.314;7.938;2023-04-26T19:23:34;7.30;99.90